Time;durP1;ratioP1;P1;durP2;ratioP2;P2;SDS_P1;SDS_P2;PMS_P1;PMS_P2;Temp;Humidity;BMP_temperature;BMP_pressure;BME280_temperature;BME280_humidity;BME280_pressure;Samples;Min_cycle;Max_cycle;Signal;HPM_P1;HPM_P2
2023/07/28 00:01:29;;;;;;;;;;;;;;;;;;4982675;28;20596;-80
2023/07/28 00:03:57;;;;;;;;;;;;;;;;;;4990154;28;20379;-80
2023/07/28 00:06:30;;;;;;;;;;;;;;;;;;4984854;28;19925;-80
2023/07/28 00:08:57;;;;;;;;;;;;;;;;;;5013837;28;19930;-80
2023/07/28 00:11:25;;;;;;;;;;;;;;;;;;4981460;28;19949;-79
2023/07/28 00:13:57;;;;;;;;;;;;;;;;;;5014710;28;19930;-80
2023/07/28 00:16:30;;;;;;;;;;;;;;;;;;4997888;28;19937;-80
2023/07/28 00:18:57;;;;;;;;;;;;;;;;;;5005541;28;19941;-80
2023/07/28 00:21:25;;;;;;;;;;;;;;;;;;5000171;28;19953;-81
2023/07/28 00:23:57;;;;;;;;;;;;;;;;;;4983628;28;19954;-81
2023/07/28 00:26:30;;;;;;;;;;;;;;;;;;4980438;28;19930;-81
2023/07/28 00:29:06;;;;;;;;;;;;;;;;;;4985107;28;20006;-81
2023/07/28 00:31:35;;;;;;;;;;;;;;;;;;4980933;28;19930;-82
2023/07/28 00:34:08;;;;;;;;;;;;;;;;;;4999924;28;19946;-82
2023/07/28 00:36:41;;;;;;;;;;;;;;;;;;4982592;28;19926;-82
2023/07/28 00:39:14;;;;;;;;;;;;;;;;;;5011620;28;19930;-82
2023/07/28 00:41:41;;;;;;;;;;;;;;;;;;5015480;28;19925;-83
2023/07/28 00:44:09;;;;;;;;;;;;;;;;;;4983148;28;20405;-82
2023/07/28 00:46:36;;;;;;;;;;;;;;;;;;4983618;28;19933;-83
2023/07/28 00:49:09;;;;;;;;;;;;;;;;;;4988297;28;19925;-83
2023/07/28 00:51:41;;;;;;;;;;;;;;;;;;5013001;28;19933;-86
2023/07/28 00:54:14;;;;;;;;;;;;;;;;;;4983872;28;20382;-84
2023/07/28 00:56:41;;;;;;;;;;;;;;;;;;4987072;28;19926;-84
2023/07/28 00:59:14;;;;;;;;;;;;;;;;;;4988106;28;19932;-83
2023/07/28 01:01:41;;;;;;;;;;;;;;;;;;4983286;28;19934;-83
2023/07/28 01:04:14;;;;;;;;;;;;;;;;;;4982399;28;20437;-83
2023/07/28 01:06:46;;;;;;;;;;;;;;;;;;5016957;28;19959;-83
2023/07/28 01:09:14;;;;;;;;;;;;;;;;;;5013929;28;19934;-83
2023/07/28 01:11:47;;;;;;;;;;;;;;;;;;4987785;28;19941;-83
2023/07/28 01:14:21;;;;;;;;;;;;;;;;;;5012481;28;20366;-84
2023/07/28 01:16:54;;;;;;;;;;;;;;;;;;4983838;28;19934;-83
2023/07/28 01:19:22;;;;;;;;;;;;;;;;;;4995968;28;20266;-83
2023/07/28 01:21:49;;;;;;;;;;;;;;;;;;5012107;28;19937;-84
2023/07/28 01:24:17;;;;;;;;;;;;;;;;;;5014335;28;19929;-83
2023/07/28 01:26:49;;;;;;;;;;;;;;;;;;4986544;28;19930;-82
2023/07/28 01:29:22;;;;;;;;;;;;;;;;;;4994809;28;19940;-82
2023/07/28 01:31:54;;;;;;;;;;;;;;;;;;4994650;28;19944;-81
2023/07/28 01:34:27;;;;;;;;;;;;;;;;;;5001951;28;19933;-81
2023/07/28 01:36:59;;;;;;;;;;;;;;;;;;4988277;28;19933;-82
2023/07/28 01:39:33;;;;;;;;;;;;;;;;;;5013102;28;19937;-81
2023/07/28 01:42:05;;;;;;;;;;;;;;;;;;4981677;28;19926;-82
2023/07/28 01:44:33;;;;;;;;;;;;;;;;;;4979284;28;19937;-82
2023/07/28 01:47:00;;;;;;;;;;;;;;;;;;4999299;28;19934;-81
2023/07/28 01:49:28;;;;;;;;;;;;;;;;;;5013633;28;19926;-81
2023/07/28 01:51:55;;;;;;;;;;;;;;;;;;5014616;28;19945;-81
2023/07/28 01:54:23;;;;;;;;;;;;;;;;;;4995837;28;19929;-81
2023/07/28 01:56:51;;;;;;;;;;;;;;;;;;5010977;28;19945;-81
2023/07/28 01:59:23;;;;;;;;;;;;;;;;;;5011489;28;19930;-81
2023/07/28 02:01:51;;;;;;;;;;;;;;;;;;4978845;28;19945;-81
2023/07/28 02:04:18;;;;;;;;;;;;;;;;;;4998307;28;19929;-81
2023/07/28 02:06:46;;;;;;;;;;;;;;;;;;4978007;28;20291;-81
2023/07/28 02:09:14;;;;;;;;;;;;;;;;;;5009831;28;19934;-81
2023/07/28 02:11:41;;;;;;;;;;;;;;;;;;4981358;28;19933;-81
2023/07/28 02:14:09;;;;;;;;;;;;;;;;;;4997737;28;19947;-81
2023/07/28 02:16:36;;;;;;;;;;;;;;;;;;4999055;28;19930;-81
2023/07/28 02:19:04;;;;;;;;;;;;;;;;;;4995316;28;19937;-81
2023/07/28 02:21:31;;;;;;;;;;;;;;;;;;5005216;28;19925;-81
2023/07/28 02:24:04;;;;;;;;;;;;;;;;;;4978615;28;19937;-81
2023/07/28 02:26:31;;;;;;;;;;;;;;;;;;4978569;28;19930;-81
2023/07/28 02:28:59;;;;;;;;;;;;;;;;;;4992198;28;19930;-81
2023/07/28 02:31:26;;;;;;;;;;;;;;;;;;5008233;28;19930;-81
2023/07/28 02:33:54;;;;;;;;;;;;;;;;;;4976816;28;19929;-81
2023/07/28 02:36:21;;;;;;;;;;;;;;;;;;4980930;28;19930;-81
2023/07/28 02:38:49;;;;;;;;;;;;;;;;;;4997403;28;19930;-81
2023/07/28 02:41:17;;;;;;;;;;;;;;;;;;4993619;28;19930;-81
2023/07/28 02:43:44;;;;;;;;;;;;;;;;;;4976808;28;19941;-81
2023/07/28 02:46:17;;;;;;;;;;;;;;;;;;4980206;28;19937;-81
2023/07/28 02:48:49;;;;;;;;;;;;;;;;;;5012144;28;20429;-82
2023/07/28 02:51:17;;;;;;;;;;;;;;;;;;4981090;28;19925;-81
2023/07/28 02:53:44;;;;;;;;;;;;;;;;;;4997838;28;19934;-81
2023/07/28 02:56:17;;;;;;;;;;;;;;;;;;4980958;28;19941;-81
2023/07/28 02:58:44;;;;;;;;;;;;;;;;;;4994971;28;19937;-82
2023/07/28 03:01:13;;;;;;;;;;;;;;;;;;5011870;28;19933;-81
2023/07/28 03:03:41;;;;;;;;;;;;;;;;;;5010556;28;20295;-81
2023/07/28 03:06:08;;;;;;;;;;;;;;;;;;5010543;28;19929;-81
2023/07/28 03:08:37;;;;;;;;;;;;;;;;;;5007653;28;19937;-82
2023/07/28 03:11:19;;;;;;;;;;;;;;;;;;4980644;28;20578;-82
2023/07/28 03:13:47;;;;;;;;;;;;;;;;;;4985885;28;19933;-82
2023/07/28 03:16:20;;;;;;;;;;;;;;;;;;4993038;28;19929;-82
2023/07/28 03:18:47;;;;;;;;;;;;;;;;;;5012880;28;20397;-82
2023/07/28 03:21:20;;;;;;;;;;;;;;;;;;5012105;28;19933;-81
2023/07/28 03:23:53;;;;;;;;;;;;;;;;;;5017709;28;19940;-78
2023/07/28 03:26:20;;;;;;;;;;;;;;;;;;5023671;28;19929;-79
2023/07/28 03:28:53;;;;;;;;;;;;;;;;;;5024892;28;19937;-79
2023/07/28 03:31:21;;;;;;;;;;;;;;;;;;4992596;28;19930;-83
2023/07/28 03:33:48;;;;;;;;;;;;;;;;;;4991984;28;19933;-79
2023/07/28 03:36:16;;;;;;;;;;;;;;;;;;5004584;28;19930;-79
2023/07/28 03:38:48;;;;;;;;;;;;;;;;;;4990865;28;19926;-79
2023/07/28 03:41:21;;;;;;;;;;;;;;;;;;4995429;28;19949;-78
2023/07/28 03:43:48;;;;;;;;;;;;;;;;;;4987033;28;19926;-77
2023/07/28 03:46:16;;;;;;;;;;;;;;;;;;4987676;28;20314;-81
2023/07/28 03:48:43;;;;;;;;;;;;;;;;;;5018302;28;19926;-79
2023/07/28 03:51:11;;;;;;;;;;;;;;;;;;4989282;28;19933;-80
2023/07/28 03:53:38;;;;;;;;;;;;;;;;;;4994182;28;19933;-79
2023/07/28 03:56:06;;;;;;;;;;;;;;;;;;4992984;28;19934;-78
2023/07/28 03:58:33;;;;;;;;;;;;;;;;;;4992109;28;19933;-79
2023/07/28 04:01:01;;;;;;;;;;;;;;;;;;5010859;28;20382;-79
2023/07/28 04:03:28;;;;;;;;;;;;;;;;;;5021848;28;19926;-79
2023/07/28 04:05:56;;;;;;;;;;;;;;;;;;4995151;28;19953;-78
2023/07/28 04:08:23;;;;;;;;;;;;;;;;;;4989305;28;19926;-78
2023/07/28 04:10:56;;;;;;;;;;;;;;;;;;5021646;28;20378;-77
2023/07/28 04:13:23;;;;;;;;;;;;;;;;;;4989519;28;19925;-78
2023/07/28 04:15:51;;;;;;;;;;;;;;;;;;5004928;28;20651;-77
2023/07/28 04:18:19;;;;;;;;;;;;;;;;;;4993447;28;19938;-79
2023/07/28 04:20:47;;;;;;;;;;;;;;;;;;4992482;28;19929;-78
2023/07/28 04:23:14;;;;;;;;;;;;;;;;;;4983031;28;19930;-82
2023/07/28 04:25:47;;;;;;;;;;;;;;;;;;4981420;28;19937;-82
2023/07/28 04:28:14;;;;;;;;;;;;;;;;;;4994827;28;19929;-81
2023/07/28 04:30:42;;;;;;;;;;;;;;;;;;4984373;28;19933;-82
2023/07/28 04:33:18;;;;;;;;;;;;;;;;;;4997657;28;20406;-81
2023/07/28 04:35:45;;;;;;;;;;;;;;;;;;5012257;28;19930;-81
2023/07/28 04:38:17;;;;;;;;;;;;;;;;;;5012238;28;19930;-81
2023/07/28 04:40:59;;;;;;;;;;;;;;;;;;4992563;28;19952;-81
2023/07/28 04:43:45;;;;;;;;;;;;;;;;;;4980006;28;19937;-81
2023/07/28 04:46:12;;;;;;;;;;;;;;;;;;4999325;28;20516;-82
2023/07/28 04:48:41;;;;;;;;;;;;;;;;;;4984921;28;19926;-81
2023/07/28 04:51:29;;;;;;;;;;;;;;;;;;4981989;28;19936;-82
2023/07/28 04:54:37;;;;;;;;;;;;;;;;;;4973945;28;20295;-81
2023/07/28 04:57:04;;;;;;;;;;;;;;;;;;4977756;28;19926;-82
2023/07/28 04:59:34;;;;;;;;;;;;;;;;;;4998504;28;19930;-81
2023/07/28 05:02:06;;;;;;;;;;;;;;;;;;4975519;28;19937;-81
2023/07/28 05:04:40;;;;;;;;;;;;;;;;;;4995451;28;19937;-81
2023/07/28 05:07:07;;;;;;;;;;;;;;;;;;4996638;28;19926;-82
2023/07/28 05:09:35;;;;;;;;;;;;;;;;;;4981340;28;19936;-82
2023/07/28 05:12:02;;;;;;;;;;;;;;;;;;4978898;28;19937;-82
2023/07/28 05:14:41;;;;;;;;;;;;;;;;;;4986550;28;19938;-84
2023/07/28 05:17:09;;;;;;;;;;;;;;;;;;4982962;28;19942;-81
2023/07/28 05:19:45;;;;;;;;;;;;;;;;;;4985800;28;20302;-83
2023/07/28 05:22:34;;;;;;;;;;;;;;;;;;5013036;28;19929;-82
2023/07/28 05:25:07;;;;;;;;;;;;;;;;;;4982758;28;19934;-82
2023/07/28 05:27:37;;;;;;;;;;;;;;;;;;5013673;28;21580;-82
2023/07/28 05:30:05;;;;;;;;;;;;;;;;;;4983981;28;19926;-82
2023/07/28 05:32:32;;;;;;;;;;;;;;;;;;5014664;28;19933;-82
2023/07/28 05:35:10;;;;;;;;;;;;;;;;;;4983295;28;19934;-82
2023/07/28 05:37:43;;;;;;;;;;;;;;;;;;4982297;28;19925;-82
2023/07/28 05:40:15;;;;;;;;;;;;;;;;;;4980024;28;20379;-82
2023/07/28 05:42:43;;;;;;;;;;;;;;;;;;4981531;28;19941;-81
2023/07/28 05:45:10;;;;;;;;;;;;;;;;;;5001559;28;20370;-82
2023/07/28 05:47:38;;;;;;;;;;;;;;;;;;4998531;28;19934;-81
2023/07/28 05:50:06;;;;;;;;;;;;;;;;;;5013692;28;20407;-81
2023/07/28 05:52:34;;;;;;;;;;;;;;;;;;4994347;28;19933;-82
2023/07/28 05:55:01;;;;;;;;;;;;;;;;;;4980516;28;19930;-82
2023/07/28 05:57:29;;;;;;;;;;;;;;;;;;5014920;28;19938;-81
2023/07/28 05:59:57;;;;;;;;;;;;;;;;;;4984546;28;19934;-81
2023/07/28 06:02:24;;;;;;;;;;;;;;;;;;4995430;28;19936;-82
2023/07/28 06:04:55;;;;;;;;;;;;;;;;;;4979594;28;19937;-81
2023/07/28 06:07:22;;;;;;;;;;;;;;;;;;5012612;28;22241;-81
2023/07/28 06:09:50;;;;;;;;;;;;;;;;;;4979197;28;19929;-81
2023/07/28 06:12:18;;;;;;;;;;;;;;;;;;4982262;28;19973;-81
2023/07/28 06:14:45;;;;;;;;;;;;;;;;;;4981559;28;20567;-81
2023/07/28 06:17:13;;;;;;;;;;;;;;;;;;4976719;28;19934;-82
2023/07/28 06:19:41;;;;;;;;;;;;;;;;;;5013040;28;19937;-82
2023/07/28 06:22:08;;;;;;;;;;;;;;;;;;4996940;28;19932;-81
2023/07/28 06:24:41;;;;;;;;;;;;;;;;;;5011591;28;19926;-81
2023/07/28 06:27:10;;;;;;;;;;;;;;;;;;4976488;28;19926;-81
2023/07/28 06:29:39;;;;;;;;;;;;;;;;;;4976772;28;20291;-81
2023/07/28 06:32:07;;;;;;;;;;;;;;;;;;4995957;28;20290;-82
2023/07/28 06:34:35;;;;;;;;;;;;;;;;;;4979373;28;19930;-81
2023/07/28 06:37:07;;;;;;;;;;;;;;;;;;4980317;28;20260;-81
2023/07/28 06:39:40;;;;;;;;;;;;;;;;;;4980959;28;19934;-81
2023/07/28 06:42:08;;;;;;;;;;;;;;;;;;5010174;28;19929;-81
2023/07/28 06:44:38;;;;;;;;;;;;;;;;;;4981442;28;20278;-81
2023/07/28 06:47:11;;;;;;;;;;;;;;;;;;4991728;28;19934;-81
2023/07/28 06:49:38;;;;;;;;;;;;;;;;;;4978689;28;19934;-81
2023/07/28 06:52:06;;;;;;;;;;;;;;;;;;4982277;28;20013;-81
2023/07/28 06:54:33;;;;;;;;;;;;;;;;;;5008086;28;19926;-80
2023/07/28 06:57:01;;;;;;;;;;;;;;;;;;4990214;28;19945;-81
2023/07/28 06:59:33;;;;;;;;;;;;;;;;;;4974392;28;20375;-81
2023/07/28 07:02:01;;;;;;;;;;;;;;;;;;4995773;28;19940;-81
2023/07/28 07:04:28;;;;;;;;;;;;;;;;;;4981174;28;19930;-81
2023/07/28 07:06:57;;;;;;;;;;;;;;;;;;4983507;28;19929;-81
2023/07/28 07:09:24;;;;;;;;;;;;;;;;;;4989146;28;19926;-81
2023/07/28 07:11:57;;;;;;;;;;;;;;;;;;4994621;28;19926;-80
2023/07/28 07:14:24;;;;;;;;;;;;;;;;;;4996683;28;19937;-80
2023/07/28 07:16:52;;;;;;;;;;;;;;;;;;4981006;28;20601;-81
2023/07/28 07:19:19;;;;;;;;;;;;;;;;;;5014062;28;19937;-80
2023/07/28 07:21:47;;;;;;;;;;;;;;;;;;4983502;28;19941;-80
2023/07/28 07:24:20;;;;;;;;;;;;;;;;;;4994549;28;19937;-80
2023/07/28 07:26:48;;;;;;;;;;;;;;;;;;4986240;28;19926;-80
2023/07/28 07:29:15;;;;;;;;;;;;;;;;;;4983564;28;20649;-80
2023/07/28 07:31:43;;;;;;;;;;;;;;;;;;4996580;28;19937;-80
2023/07/28 07:34:11;;;;;;;;;;;;;;;;;;4980399;28;20149;-80
2023/07/28 07:36:39;;;;;;;;;;;;;;;;;;4979549;28;19930;-79
2023/07/28 07:39:07;;;;;;;;;;;;;;;;;;4995739;28;19936;-79
2023/07/28 07:41:40;;;;;;;;;;;;;;;;;;4992580;28;20378;-80
2023/07/28 07:44:07;;;;;;;;;;;;;;;;;;4980446;28;19932;-80
2023/07/28 07:46:40;;;;;;;;;;;;;;;;;;4970185;28;20737;-81
2023/07/28 07:49:08;;;;;;;;;;;;;;;;;;4990253;28;19937;-80
2023/07/28 07:51:40;;;;;;;;;;;;;;;;;;4959496;28;19934;-80
2023/07/28 07:54:08;;;;;;;;;;;;;;;;;;4992506;28;19934;-81
2023/07/28 07:56:35;;;;;;;;;;;;;;;;;;4963253;28;19933;-80
2023/07/28 07:59:03;;;;;;;;;;;;;;;;;;4992102;28;19949;-80
2023/07/28 08:01:35;;;;;;;;;;;;;;;;;;4958465;28;19949;-80
2023/07/28 08:04:03;;;;;;;;;;;;;;;;;;4968973;28;19961;-80
2023/07/28 08:06:36;;;;;;;;;;;;;;;;;;4954939;28;19941;-80
2023/07/28 08:09:03;;;;;;;;;;;;;;;;;;4984472;28;19960;-80
2023/07/28 08:11:31;;;;;;;;;;;;;;;;;;4954894;28;19949;-80
2023/07/28 08:13:59;;;;;;;;;;;;;;;;;;4954494;28;19933;-80
2023/07/28 08:16:26;;;;;;;;;;;;;;;;;;4952746;28;19934;-80
2023/07/28 08:18:54;;;;;;;;;;;;;;;;;;4968178;28;19941;-80
2023/07/28 08:21:22;;;;;;;;;;;;;;;;;;4961556;28;19941;-80
2023/07/28 08:23:50;;;;;;;;;;;;;;;;;;4958716;28;19940;-80
2023/07/28 08:26:22;;;;;;;;;;;;;;;;;;4963549;28;19945;-80
2023/07/28 08:28:50;;;;;;;;;;;;;;;;;;4964273;28;19934;-79
2023/07/28 08:31:18;;;;;;;;;;;;;;;;;;4988636;28;19933;-79
2023/07/28 08:33:45;;;;;;;;;;;;;;;;;;4966385;28;19933;-78
2023/07/28 08:36:18;;;;;;;;;;;;;;;;;;4960983;28;19934;-80
2023/07/28 08:38:46;;;;;;;;;;;;;;;;;;4958847;28;19937;-80
2023/07/28 08:41:14;;;;;;;;;;;;;;;;;;4960381;28;19972;-80
2023/07/28 08:43:46;;;;;;;;;;;;;;;;;;4960484;28;19941;-80
2023/07/28 08:46:14;;;;;;;;;;;;;;;;;;4958904;28;19934;-80
2023/07/28 08:48:42;;;;;;;;;;;;;;;;;;4962014;28;19933;-80
2023/07/28 08:51:09;;;;;;;;;;;;;;;;;;4950568;28;19941;-80
2023/07/28 08:53:42;;;;;;;;;;;;;;;;;;4956680;28;19934;-80
2023/07/28 08:56:09;;;;;;;;;;;;;;;;;;4958200;28;19941;-80
2023/07/28 08:58:37;;;;;;;;;;;;;;;;;;4958292;28;19930;-79
2023/07/28 09:01:04;;;;;;;;;;;;;;;;;;4950684;28;19941;-79
2023/07/28 09:03:40;;;;;;;;;;;;;;;;;;4954262;28;19940;-79
2023/07/28 09:06:09;;;;;;;;;;;;;;;;;;4965125;28;19940;-81
2023/07/28 09:08:36;;;;;;;;;;;;;;;;;;4990542;28;19934;-80
2023/07/28 09:11:05;;;;;;;;;;;;;;;;;;4961713;28;20405;-80
2023/07/28 09:13:39;;;;;;;;;;;;;;;;;;4952455;28;19934;-80
2023/07/28 09:16:11;;;;;;;;;;;;;;;;;;4955505;28;19941;-79
2023/07/28 09:18:44;;;;;;;;;;;;;;;;;;4950623;28;20489;-79
2023/07/28 09:21:12;;;;;;;;;;;;;;;;;;4957346;28;19934;-79
2023/07/28 09:23:39;;;;;;;;;;;;;;;;;;4959548;28;19933;-80
2023/07/28 09:26:07;;;;;;;;;;;;;;;;;;4955739;28;19929;-79
2023/07/28 09:28:41;;;;;;;;;;;;;;;;;;4968633;28;19933;-80
2023/07/28 09:31:09;;;;;;;;;;;;;;;;;;4958482;28;19933;-80
2023/07/28 09:33:37;;;;;;;;;;;;;;;;;;4959980;28;19943;-80
2023/07/28 09:36:10;;;;;;;;;;;;;;;;;;4959958;28;20366;-80
2023/07/28 09:38:38;;;;;;;;;;;;;;;;;;5001647;28;20410;-80
2023/07/28 09:41:11;;;;;;;;;;;;;;;;;;4963077;28;20502;-80
2023/07/28 09:43:39;;;;;;;;;;;;;;;;;;4975575;28;19934;-79
2023/07/28 09:46:07;;;;;;;;;;;;;;;;;;4961558;28;20489;-80
2023/07/28 09:48:39;;;;;;;;;;;;;;;;;;4960560;28;19941;-79
2023/07/28 09:51:12;;;;;;;;;;;;;;;;;;4969930;28;20465;-79
2023/07/28 09:53:40;;;;;;;;;;;;;;;;;;4963370;28;19934;-78
2023/07/28 09:56:08;;;;;;;;;;;;;;;;;;4954215;28;19934;-79
2023/07/28 09:58:41;;;;;;;;;;;;;;;;;;4953544;28;19933;-78
2023/07/28 10:01:13;;;;;;;;;;;;;;;;;;4951894;28;19934;-79
2023/07/28 10:03:41;;;;;;;;;;;;;;;;;;4986288;28;19945;-79
2023/07/28 10:06:08;;;;;;;;;;;;;;;;;;4957030;28;19940;-80
2023/07/28 10:08:41;;;;;;;;;;;;;;;;;;4958526;28;19934;-79
2023/07/28 10:11:11;;;;;;;;;;;;;;;;;;4949883;28;21895;-80
2023/07/28 10:13:39;;;;;;;;;;;;;;;;;;4955232;28;19933;-80
2023/07/28 10:16:14;;;;;;;;;;;;;;;;;;4952435;28;19950;-79
2023/07/28 10:18:42;;;;;;;;;;;;;;;;;;4968548;28;19941;-79
2023/07/28 10:21:14;;;;;;;;;;;;;;;;;;4954573;28;19933;-80
2023/07/28 10:23:42;;;;;;;;;;;;;;;;;;4960582;28;19930;-79
2023/07/28 10:26:09;;;;;;;;;;;;;;;;;;4966181;28;19949;-79
2023/07/28 10:28:38;;;;;;;;;;;;;;;;;;4958857;28;20628;-79
2023/07/28 10:31:06;;;;;;;;;;;;;;;;;;4956295;28;19941;-80
2023/07/28 10:33:34;;;;;;;;;;;;;;;;;;4958174;28;19945;-80
2023/07/28 10:36:01;;;;;;;;;;;;;;;;;;4957953;28;19930;-80
2023/07/28 10:38:28;;;;;;;;;;;;;;;;;;4951954;28;19945;-80
2023/07/28 10:40:56;;;;;;;;;;;;;;;;;;4951597;28;19934;-80
2023/07/28 10:43:28;;;;;;;;;;;;;;;;;;4924455;28;21508;-80
2023/07/28 10:45:56;;;;;;;;;;;;;;;;;;4958314;28;20014;-80
2023/07/28 10:48:28;;;;;;;;;;;;;;;;;;4954019;28;19934;-80
2023/07/28 10:50:56;;;;;;;;;;;;;;;;;;4957345;28;19934;-80
2023/07/28 10:53:23;;;;;;;;;;;;;;;;;;4956812;28;19933;-80
2023/07/28 10:55:51;;;;;;;;;;;;;;;;;;4957424;28;19940;-80
2023/07/28 10:58:18;;;;;;;;;;;;;;;;;;4962700;28;20493;-80
2023/07/28 11:00:47;;;;;;;;;;;;;;;;;;4954886;28;21219;-80
2023/07/28 11:03:14;;;;;;;;;;;;;;;;;;4986915;28;22307;-81
2023/07/28 11:05:47;;;;;;;;;;;;;;;;;;4955375;28;19934;-79
2023/07/28 11:08:14;;;;;;;;;;;;;;;;;;4968535;28;19934;-80
2023/07/28 11:10:42;;;;;;;;;;;;;;;;;;4951725;28;19936;-79
2023/07/28 11:13:10;;;;;;;;;;;;;;;;;;4951828;28;19934;-80
2023/07/28 11:15:42;;;;;;;;;;;;;;;;;;4980097;28;19934;-80
2023/07/28 11:18:11;;;;;;;;;;;;;;;;;;4982936;28;19934;-80
2023/07/28 11:20:38;;;;;;;;;;;;;;;;;;4955342;28;19937;-80
2023/07/28 11:23:11;;;;;;;;;;;;;;;;;;4990097;28;19933;-80
2023/07/28 11:25:44;;;;;;;;;;;;;;;;;;4949889;28;19941;-80
2023/07/28 11:28:12;;;;;;;;;;;;;;;;;;4951764;28;19929;-80
2023/07/28 11:30:40;;;;;;;;;;;;;;;;;;4966204;28;19941;-80
2023/07/28 11:33:13;;;;;;;;;;;;;;;;;;4989297;28;19937;-80
2023/07/28 11:35:46;;;;;;;;;;;;;;;;;;4952916;28;21154;-80
2023/07/28 11:38:13;;;;;;;;;;;;;;;;;;4952525;28;21425;-80
2023/07/28 11:40:46;;;;;;;;;;;;;;;;;;4965830;28;19940;-80
2023/07/28 11:43:14;;;;;;;;;;;;;;;;;;4928872;28;19963;-80
2023/07/28 11:45:42;;;;;;;;;;;;;;;;;;4954895;28;19933;-80
2023/07/28 11:48:09;;;;;;;;;;;;;;;;;;4959122;28;19936;-80
2023/07/28 11:50:42;;;;;;;;;;;;;;;;;;4958389;28;20160;-80
2023/07/28 11:53:10;;;;;;;;;;;;;;;;;;4958596;28;20972;-80
2023/07/28 11:55:37;;;;;;;;;;;;;;;;;;4957615;28;19929;-79
2023/07/28 11:58:05;;;;;;;;;;;;;;;;;;4955407;28;19934;-80
2023/07/28 12:00:37;;;;;;;;;;;;;;;;;;4958584;28;20404;-80
2023/07/28 12:03:10;;;;;;;;;;;;;;;;;;4975244;28;20677;-80
2023/07/28 12:05:38;;;;;;;;;;;;;;;;;;4958076;28;20129;-80
2023/07/28 12:08:07;;;;;;;;;;;;;;;;;;4959911;28;19925;-80
2023/07/28 12:10:40;;;;;;;;;;;;;;;;;;4992176;28;19933;-80
2023/07/28 12:13:09;;;;;;;;;;;;;;;;;;4963020;28;20650;-80
2023/07/28 12:15:37;;;;;;;;;;;;;;;;;;4960080;28;20742;-80
2023/07/28 12:18:03;;;;;;;;;;;;;;;;;;4954209;28;19934;-80
2023/07/28 12:20:36;;;;;;;;;;;;;;;;;;4955721;28;19940;-80
2023/07/28 12:23:03;;;;;;;;;;;;;;;;;;4956842;28;19934;-80
2023/07/28 12:25:31;;;;;;;;;;;;;;;;;;4956134;28;19940;-80
2023/07/28 12:28:03;;;;;;;;;;;;;;;;;;4972526;28;20503;-80
2023/07/28 12:30:36;;;;;;;;;;;;;;;;;;4955668;28;19934;-80
2023/07/28 12:33:09;;;;;;;;;;;;;;;;;;4958063;28;20445;-80
2023/07/28 12:35:37;;;;;;;;;;;;;;;;;;4960343;28;19930;-80
2023/07/28 12:38:04;;;;;;;;;;;;;;;;;;4958932;28;19934;-80
2023/07/28 12:40:37;;;;;;;;;;;;;;;;;;4960618;28;19933;-80
2023/07/28 12:43:05;;;;;;;;;;;;;;;;;;4962912;28;21798;-80
2023/07/28 12:45:32;;;;;;;;;;;;;;;;;;4955721;28;19934;-80
2023/07/28 12:48:00;;;;;;;;;;;;;;;;;;4986572;28;20365;-80
2023/07/28 12:50:32;;;;;;;;;;;;;;;;;;4964969;28;20267;-80
2023/07/28 12:53:00;;;;;;;;;;;;;;;;;;4968504;28;19940;-79
2023/07/28 12:55:34;;;;;;;;;;;;;;;;;;4957631;28;21166;-79
2023/07/28 12:58:07;;;;;;;;;;;;;;;;;;4988064;28;19934;-79
2023/07/28 13:00:35;;;;;;;;;;;;;;;;;;4959541;28;19940;-79
2023/07/28 13:03:07;;;;;;;;;;;;;;;;;;4954079;28;20410;-79
2023/07/28 13:05:43;;;;;;;;;;;;;;;;;;4956931;28;19934;-79
2023/07/28 13:08:10;;;;;;;;;;;;;;;;;;4955532;28;19934;-79
2023/07/28 13:10:38;;;;;;;;;;;;;;;;;;4990707;28;19940;-80
2023/07/28 13:13:06;;;;;;;;;;;;;;;;;;4955947;28;19933;-79
2023/07/28 13:15:33;;;;;;;;;;;;;;;;;;4985141;28;19949;-80
2023/07/28 13:18:06;;;;;;;;;;;;;;;;;;4952837;28;19941;-79
2023/07/28 13:20:34;;;;;;;;;;;;;;;;;;4955064;28;19930;-80
2023/07/28 13:23:06;;;;;;;;;;;;;;;;;;4956955;28;20448;-80
2023/07/28 13:25:39;;;;;;;;;;;;;;;;;;4951958;28;19940;-80
2023/07/28 13:28:07;;;;;;;;;;;;;;;;;;4959552;28;19933;-80
2023/07/28 13:30:34;;;;;;;;;;;;;;;;;;4953812;28;21661;-81
2023/07/28 13:33:07;;;;;;;;;;;;;;;;;;4950195;28;19934;-79
2023/07/28 13:35:34;;;;;;;;;;;;;;;;;;4954758;28;19929;-80
2023/07/28 13:38:07;;;;;;;;;;;;;;;;;;4981585;28;19972;-85
2023/07/28 13:40:34;;;;;;;;;;;;;;;;;;4958119;28;19933;-80
2023/07/28 13:43:02;;;;;;;;;;;;;;;;;;4929554;28;20290;-80
2023/07/28 13:45:29;;;;;;;;;;;;;;;;;;4982367;28;20580;-80
2023/07/28 13:47:57;;;;;;;;;;;;;;;;;;4950629;28;19934;-80
2023/07/28 13:50:24;;;;;;;;;;;;;;;;;;4986753;28;19941;-80
2023/07/28 13:52:52;;;;;;;;;;;;;;;;;;4954129;28;19937;-80
2023/07/28 13:55:19;;;;;;;;;;;;;;;;;;4954163;28;19934;-79
2023/07/28 13:57:47;;;;;;;;;;;;;;;;;;4956580;28;19934;-80
2023/07/28 14:00:15;;;;;;;;;;;;;;;;;;4954930;28;19961;-80
2023/07/28 14:02:42;;;;;;;;;;;;;;;;;;4956949;28;20557;-80
2023/07/28 14:05:10;;;;;;;;;;;;;;;;;;4953245;28;19929;-81
2023/07/28 14:07:42;;;;;;;;;;;;;;;;;;4953176;28;19933;-80
2023/07/28 14:10:11;;;;;;;;;;;;;;;;;;4948844;28;19933;-80
2023/07/28 14:12:38;;;;;;;;;;;;;;;;;;4952551;28;19980;-80
2023/07/28 14:15:06;;;;;;;;;;;;;;;;;;4958604;28;19941;-79
2023/07/28 14:17:33;;;;;;;;;;;;;;;;;;4987568;28;20690;-81
2023/07/28 14:20:07;;;;;;;;;;;;;;;;;;4978850;28;20446;-80
2023/07/28 14:22:35;;;;;;;;;;;;;;;;;;4968993;28;19933;-80
2023/07/28 14:25:02;;;;;;;;;;;;;;;;;;4982682;28;19934;-80
2023/07/28 14:27:30;;;;;;;;;;;;;;;;;;4961497;28;19930;-79
2023/07/28 14:29:57;;;;;;;;;;;;;;;;;;4986981;28;19934;-78
2023/07/28 14:32:30;;;;;;;;;;;;;;;;;;4958015;28;19941;-79
2023/07/28 14:34:58;;;;;;;;;;;;;;;;;;4950734;28;21981;-79
2023/07/28 14:37:25;;;;;;;;;;;;;;;;;;4954305;28;19941;-78
2023/07/28 14:39:53;;;;;;;;;;;;;;;;;;4953372;28;19934;-79
2023/07/28 14:42:20;;;;;;;;;;;;;;;;;;4949549;28;19941;-79
2023/07/28 14:44:53;;;;;;;;;;;;;;;;;;4927190;28;20968;-79
2023/07/28 14:47:20;;;;;;;;;;;;;;;;;;4985219;28;19940;-78
2023/07/28 14:49:48;;;;;;;;;;;;;;;;;;4971888;28;19934;-79
2023/07/28 14:52:15;;;;;;;;;;;;;;;;;;4953002;28;19942;-79
2023/07/28 14:54:43;;;;;;;;;;;;;;;;;;4951287;28;19934;-78
2023/07/28 14:57:14;;;;;;;;;;;;;;;;;;4950811;28;19934;-79
2023/07/28 14:59:42;;;;;;;;;;;;;;;;;;4949853;28;19934;-79
2023/07/28 15:02:11;;;;;;;;;;;;;;;;;;4949745;28;19934;-79
2023/07/28 15:04:39;;;;;;;;;;;;;;;;;;4970194;28;20487;-78
2023/07/28 15:07:12;;;;;;;;;;;;;;;;;;4951244;28;19934;-80
2023/07/28 15:09:39;;;;;;;;;;;;;;;;;;4953115;28;19996;-80
2023/07/28 15:12:07;;;;;;;;;;;;;;;;;;4986169;28;20819;-78
2023/07/28 15:14:34;;;;;;;;;;;;;;;;;;4953582;28;19929;-79
2023/07/28 15:17:02;;;;;;;;;;;;;;;;;;4956903;28;19934;-79
2023/07/28 15:19:30;;;;;;;;;;;;;;;;;;4993762;28;19941;-80
2023/07/28 15:22:02;;;;;;;;;;;;;;;;;;4961848;28;19934;-78
2023/07/28 15:24:30;;;;;;;;;;;;;;;;;;4967077;28;19941;-79
2023/07/28 15:26:57;;;;;;;;;;;;;;;;;;4970721;28;21265;-78
2023/07/28 15:29:30;;;;;;;;;;;;;;;;;;4971580;28;19933;-79
2023/07/28 15:31:57;;;;;;;;;;;;;;;;;;4969692;28;20393;-78
2023/07/28 15:34:25;;;;;;;;;;;;;;;;;;4970011;28;19941;-79
2023/07/28 15:36:53;;;;;;;;;;;;;;;;;;4968507;28;19933;-79
2023/07/28 15:39:21;;;;;;;;;;;;;;;;;;4963916;28;19934;-78
2023/07/28 15:41:53;;;;;;;;;;;;;;;;;;4964912;28;19933;-79
2023/07/28 15:44:21;;;;;;;;;;;;;;;;;;4972038;28;19937;-79
2023/07/28 15:46:51;;;;;;;;;;;;;;;;;;4995560;28;21334;-79
2023/07/28 15:49:19;;;;;;;;;;;;;;;;;;5002618;28;19934;-78
2023/07/28 15:51:51;;;;;;;;;;;;;;;;;;4964720;28;19941;-79
2023/07/28 15:54:24;;;;;;;;;;;;;;;;;;4967032;28;20704;-78
2023/07/28 15:56:52;;;;;;;;;;;;;;;;;;4970725;28;19941;-79
2023/07/28 15:59:25;;;;;;;;;;;;;;;;;;4969215;28;20382;-79
2023/07/28 16:01:57;;;;;;;;;;;;;;;;;;4969512;28;19941;-78
2023/07/28 16:04:25;;;;;;;;;;;;;;;;;;4960628;28;19934;-79
2023/07/28 16:06:57;;;;;;;;;;;;;;;;;;4961486;28;19934;-80
2023/07/28 16:09:25;;;;;;;;;;;;;;;;;;4965484;28;20744;-79
2023/07/28 16:11:57;;;;;;;;;;;;;;;;;;4967701;28;19933;-79
2023/07/28 16:14:30;;;;;;;;;;;;;;;;;;4964652;28;19940;-79
2023/07/28 16:17:03;;;;;;;;;;;;;;;;;;4959547;28;19934;-79
2023/07/28 16:19:30;;;;;;;;;;;;;;;;;;4958267;28;19934;-79
2023/07/28 16:22:04;;;;;;;;;;;;;;;;;;4956207;28;20021;-79
2023/07/28 16:24:37;;;;;;;;;;;;;;;;;;4959568;28;19945;-79
2023/07/28 16:27:05;;;;;;;;;;;;;;;;;;4959779;28;20425;-79
2023/07/28 16:29:33;;;;;;;;;;;;;;;;;;4993703;28;20566;-79
2023/07/28 16:32:06;;;;;;;;;;;;;;;;;;4959792;28;19934;-79
2023/07/28 16:34:34;;;;;;;;;;;;;;;;;;4960109;28;19933;-80
2023/07/28 16:37:01;;;;;;;;;;;;;;;;;;4963919;28;19933;-80
2023/07/28 16:39:34;;;;;;;;;;;;;;;;;;4968052;28;19934;-80
2023/07/28 16:42:02;;;;;;;;;;;;;;;;;;4953557;28;19934;-79
2023/07/28 16:44:35;;;;;;;;;;;;;;;;;;4928601;28;19934;-79
2023/07/28 16:47:02;;;;;;;;;;;;;;;;;;4960426;28;19943;-79
2023/07/28 16:49:35;;;;;;;;;;;;;;;;;;4961881;28;20382;-79
2023/07/28 16:52:02;;;;;;;;;;;;;;;;;;4957416;28;19933;-78
2023/07/28 16:54:35;;;;;;;;;;;;;;;;;;4952988;28;19933;-79
2023/07/28 16:57:03;;;;;;;;;;;;;;;;;;4983679;28;19961;-79
2023/07/28 16:59:35;;;;;;;;;;;;;;;;;;4991826;28;20293;-79
2023/07/28 17:02:08;;;;;;;;;;;;;;;;;;4967622;28;19929;-79